createdAt,value
2023-03-29T00:00:00.403Z,100716.53
2023-03-29T00:02:30.549Z,100713.38
2023-03-29T00:05:02.189Z,100719.75
2023-03-29T00:07:33.399Z,100712.09
2023-03-29T00:10:02.040Z,100723.34
2023-03-29T00:12:29.470Z,100728.13
2023-03-29T00:14:57.302Z,100726.06
2023-03-29T00:17:24.476Z,100727.38
2023-03-29T00:19:51.513Z,100726.31
2023-03-29T00:22:18.690Z,100728.38
2023-03-29T00:24:47.805Z,100722.56
2023-03-29T00:27:16.558Z,100728.53
2023-03-29T00:29:43.697Z,100722.94
2023-03-29T00:32:10.785Z,100721.50
2023-03-29T00:34:37.904Z,100723.81
2023-03-29T00:37:08.889Z,100725.56
2023-03-29T00:39:37.316Z,100727.66
2023-03-29T00:42:04.423Z,100726.03
2023-03-29T00:45:19.093Z,100729.13
2023-03-29T00:47:57.119Z,100728.19
2023-03-29T00:50:30.976Z,100733.84
2023-03-29T00:53:28.372Z,100725.50
2023-03-29T00:56:24.430Z,100721.28
2023-03-29T00:59:07.187Z,100718.06
2023-03-29T01:01:50.517Z,100724.53
2023-03-29T01:04:32.972Z,100718.13
2023-03-29T01:07:38.226Z,100720.47
2023-03-29T01:10:13.366Z,100715.94
2023-03-29T01:12:56.457Z,100716.56
2023-03-29T01:15:26.628Z,100720.47
2023-03-29T01:17:55.811Z,100723.19
2023-03-29T01:21:10.239Z,100728.06
2023-03-29T01:24:11.019Z,100725.09
2023-03-29T01:27:28.477Z,100725.31
2023-03-29T01:30:12.940Z,100718.84
2023-03-29T01:33:06.350Z,100724.19
2023-03-29T01:36:00.173Z,100723.78
2023-03-29T01:38:35.682Z,100722.97
2023-03-29T01:41:03.879Z,100730.66
2023-03-29T01:43:44.462Z,100727.94
2023-03-29T01:46:47.849Z,100723.72
2023-03-29T01:49:23.706Z,100718.91
2023-03-29T01:52:12.354Z,100729.50
2023-03-29T01:54:56.331Z,100729.22
2023-03-29T01:57:25.149Z,100723.91
2023-03-29T01:59:55.877Z,100723.28
2023-03-29T02:02:27.513Z,100723.66
2023-03-29T02:04:56.193Z,100724.53
2023-03-29T02:07:30.665Z,100727.59
2023-03-29T02:09:59.426Z,100724.47
2023-03-29T02:12:27.033Z,100730.47
2023-03-29T02:14:54.078Z,100732.16
2023-03-29T02:17:27.610Z,100735.59
2023-03-29T02:20:20.644Z,100741.69
2023-03-29T02:22:58.977Z,100739.09
2023-03-29T02:25:26.325Z,100733.97
2023-03-29T02:27:54.116Z,100745.66
2023-03-29T02:30:22.270Z,100747.63
2023-03-29T02:33:05.873Z,100750.47
2023-03-29T02:35:41.304Z,100749.44
2023-03-29T02:38:11.450Z,100745.38
2023-03-29T02:40:40.229Z,100742.03
2023-03-29T02:43:09.813Z,100747.31
2023-03-29T02:45:39.034Z,100741.75
2023-03-29T02:48:12.574Z,100745.09
2023-03-29T02:50:42.937Z,100744.06
2023-03-29T02:53:18.996Z,100736.84
2023-03-29T02:55:46.954Z,100745.66
2023-03-29T02:58:15.567Z,100744.81
2023-03-29T03:00:49.436Z,100745.09
2023-03-29T03:03:16.925Z,100748.41
2023-03-29T03:05:44.417Z,100746.84
2023-03-29T03:08:11.493Z,100746.16
2023-03-29T03:10:39.323Z,100751.59
2023-03-29T03:13:06.716Z,100739.66
2023-03-29T03:15:37.394Z,100755.19
2023-03-29T03:18:04.826Z,100758.56
2023-03-29T03:20:31.950Z,100765.69
2023-03-29T03:22:59.045Z,100759.91
2023-03-29T03:25:26.179Z,100764.66
2023-03-29T03:27:54.387Z,100760.41
2023-03-29T03:30:21.940Z,100754.75
2023-03-29T03:32:49.979Z,100746.22
2023-03-29T03:35:17.096Z,100754.13
2023-03-29T03:37:44.141Z,100763.69
2023-03-29T03:40:11.862Z,100754.31
2023-03-29T03:42:42.660Z,100756.84
2023-03-29T03:45:10.869Z,100756.84
2023-03-29T03:47:38.499Z,100754.81
2023-03-29T03:50:08.663Z,100757.34
2023-03-29T03:52:35.670Z,100757.75
2023-03-29T03:55:03.055Z,100760.41
2023-03-29T03:57:30.266Z,100760.25
2023-03-29T03:59:57.590Z,100760.13
2023-03-29T04:02:24.754Z,100765.56
2023-03-29T04:04:51.990Z,100769.56
2023-03-29T04:07:19.052Z,100767.81
2023-03-29T04:09:46.065Z,100767.69
2023-03-29T04:12:13.099Z,100773.31
2023-03-29T04:14:40.495Z,100775.56
2023-03-29T04:17:08.015Z,100778.63
2023-03-29T04:19:35.316Z,100775.47
2023-03-29T04:22:02.359Z,100779.59
2023-03-29T04:24:29.448Z,100770.94
2023-03-29T04:26:56.494Z,100783.75
2023-03-29T04:29:23.564Z,100771.94
2023-03-29T04:31:50.731Z,100784.19
2023-03-29T04:34:17.769Z,100781.94
2023-03-29T04:36:44.794Z,100784.38
2023-03-29T04:39:12.249Z,100781.66
2023-03-29T04:41:39.235Z,100775.88
2023-03-29T04:44:06.934Z,100784.25
2023-03-29T04:46:34.668Z,100790.31
2023-03-29T04:49:01.900Z,100775.69
2023-03-29T04:51:29.642Z,100777.03
2023-03-29T04:53:56.728Z,100768.75
2023-03-29T04:56:23.942Z,100770.91
2023-03-29T04:58:51.301Z,100769.06
2023-03-29T05:01:18.771Z,100748.41
2023-03-29T05:03:45.821Z,100768.81
2023-03-29T05:06:12.972Z,100774.03
2023-03-29T05:08:40.744Z,100768.19
2023-03-29T05:11:10.902Z,100762.00
2023-03-29T05:13:38.521Z,100757.47
2023-03-29T05:16:07.873Z,100756.25
2023-03-29T05:18:35.744Z,100751.06
2023-03-29T05:21:04.473Z,100755.91
2023-03-29T05:23:31.948Z,100751.38
2023-03-29T05:25:58.998Z,100747.25
2023-03-29T05:28:26.197Z,100746.97
2023-03-29T05:31:07.083Z,100746.09
2023-03-29T05:33:35.545Z,100735.03
2023-03-29T05:36:09.551Z,100736.91
2023-03-29T05:38:37.068Z,100750.56
2023-03-29T05:41:04.438Z,100737.88
2023-03-29T05:43:31.817Z,100740.66
2023-03-29T05:45:59.466Z,100745.88
2023-03-29T05:48:27.430Z,100737.16
2023-03-29T05:50:56.394Z,100737.22
2023-03-29T05:53:25.355Z,100737.66
2023-03-29T05:55:52.802Z,100742.56
2023-03-29T05:58:21.579Z,100739.63
2023-03-29T06:00:49.847Z,100730.59
2023-03-29T06:03:21.723Z,100744.34
2023-03-29T06:05:56.383Z,100745.97
2023-03-29T06:08:23.802Z,100744.41
2023-03-29T06:10:51.893Z,100740.06
2023-03-29T06:13:18.983Z,100744.63
2023-03-29T06:15:46.060Z,100754.88
2023-03-29T06:18:13.137Z,100744.09
2023-03-29T06:20:40.121Z,100746.28
2023-03-29T06:23:08.698Z,100749.03
2023-03-29T06:25:35.721Z,100753.69
2023-03-29T06:28:02.796Z,100743.69
2023-03-29T06:30:29.840Z,100748.44
2023-03-29T06:32:59.371Z,100750.00
2023-03-29T06:35:27.121Z,100748.28
2023-03-29T06:37:54.533Z,100742.94
2023-03-29T06:40:22.999Z,100755.69
2023-03-29T06:42:51.006Z,100760.03
2023-03-29T06:45:19.003Z,100750.88
2023-03-29T06:47:47.032Z,100756.88
2023-03-29T06:50:14.730Z,100766.44
2023-03-29T06:52:41.908Z,100763.03
2023-03-29T06:55:11.817Z,100768.47
2023-03-29T06:57:40.197Z,100762.59
2023-03-29T07:00:15.060Z,100767.31
2023-03-29T07:02:42.471Z,100754.41
2023-03-29T07:05:13.657Z,100756.81
2023-03-29T07:07:57.146Z,100763.72
2023-03-29T07:10:40.010Z,100763.72
2023-03-29T07:13:09.036Z,100774.78
2023-03-29T07:15:36.231Z,100769.78
2023-03-29T07:18:05.038Z,100765.53
2023-03-29T07:20:33.847Z,100769.41
2023-03-29T07:23:01.110Z,100764.41
2023-03-29T07:25:30.032Z,100766.06
2023-03-29T07:27:57.611Z,100771.28
2023-03-29T07:30:31.997Z,100762.72
2023-03-29T07:33:00.590Z,100757.25
2023-03-29T07:35:28.009Z,100752.69
2023-03-29T07:37:55.977Z,100751.91
2023-03-29T07:40:24.742Z,100758.22
2023-03-29T07:42:55.146Z,100762.38
2023-03-29T07:45:26.618Z,100760.28
2023-03-29T07:47:57.711Z,100755.13
2023-03-29T07:50:26.177Z,100764.28
2023-03-29T07:52:53.563Z,100761.03
2023-03-29T07:55:20.732Z,100758.59
2023-03-29T07:57:49.906Z,100766.84
2023-03-29T08:00:19.634Z,100762.84
2023-03-29T08:02:49.979Z,100761.00
2023-03-29T08:05:26.101Z,100758.59
2023-03-29T08:08:01.041Z,100759.44
2023-03-29T08:10:28.515Z,100752.78
2023-03-29T08:12:55.885Z,100743.25
2023-03-29T08:15:22.974Z,100744.25
2023-03-29T08:17:50.079Z,100745.75
2023-03-29T08:20:17.226Z,100734.56
2023-03-29T08:22:44.458Z,100740.47
2023-03-29T08:25:12.432Z,100734.34
2023-03-29T08:27:39.838Z,100740.84
2023-03-29T08:30:09.558Z,100724.34
2023-03-29T08:32:37.870Z,100728.78
2023-03-29T08:35:06.637Z,100735.19
2023-03-29T08:37:33.795Z,100734.91
2023-03-29T08:40:01.451Z,100741.63
2023-03-29T08:42:55.525Z,100736.41
2023-03-29T08:45:43.896Z,100739.00
2023-03-29T08:48:38.437Z,100731.03
2023-03-29T08:51:22.223Z,100730.06
2023-03-29T08:53:59.820Z,100724.72
2023-03-29T08:56:35.416Z,100721.13
2023-03-29T08:59:03.514Z,100726.56
2023-03-29T09:01:36.249Z,100730.16
2023-03-29T09:04:09.885Z,100721.13
2023-03-29T09:06:39.736Z,100723.84
2023-03-29T09:09:16.527Z,100713.97
2023-03-29T09:12:04.382Z,100717.56
2023-03-29T09:14:40.181Z,100718.47
2023-03-29T09:17:42.615Z,100710.50
2023-03-29T09:20:37.512Z,100717.56
2023-03-29T09:23:38.721Z,100706.84
2023-03-29T09:26:43.979Z,100710.38
2023-03-29T09:30:00.291Z,100711.06
2023-03-29T09:32:55.055Z,100709.53
2023-03-29T09:35:59.713Z,100699.28
2023-03-29T09:38:30.629Z,100692.25
2023-03-29T09:41:06.726Z,100696.00
2023-03-29T09:43:40.695Z,100693.16
2023-03-29T09:46:23.516Z,100697.06
2023-03-29T09:48:52.176Z,100697.03
2023-03-29T09:51:24.523Z,100701.44
2023-03-29T09:53:51.896Z,100697.09
2023-03-29T09:56:19.181Z,100692.22
2023-03-29T09:58:47.254Z,100689.00
2023-03-29T10:01:17.541Z,100684.03
2023-03-29T10:03:54.765Z,100683.59
2023-03-29T10:06:25.675Z,100682.41
2023-03-29T10:08:59.051Z,100674.63
2023-03-29T10:11:33.599Z,100678.19
2023-03-29T10:14:12.412Z,100668.03
2023-03-29T10:16:44.800Z,100686.84
2023-03-29T10:19:34.947Z,100667.59
2023-03-29T10:22:16.519Z,100698.28
2023-03-29T10:24:51.699Z,100685.84
2023-03-29T10:27:31.754Z,100682.94
2023-03-29T10:30:07.437Z,100680.97
2023-03-29T10:32:37.651Z,100676.53
2023-03-29T10:35:41.796Z,100673.31
2023-03-29T10:38:19.636Z,100677.16
2023-03-29T10:40:50.588Z,100674.38
2023-03-29T10:43:17.550Z,100672.59
2023-03-29T10:45:48.061Z,100672.34
2023-03-29T10:48:17.867Z,100666.53
2023-03-29T10:50:53.008Z,100671.91
2023-03-29T10:53:38.006Z,100677.72
2023-03-29T10:56:37.144Z,100671.94
2023-03-29T10:59:29.667Z,100665.19
2023-03-29T11:02:15.073Z,100674.50
2023-03-29T11:05:10.722Z,100661.84
2023-03-29T11:07:57.148Z,100663.72
2023-03-29T11:10:55.369Z,100658.00
2023-03-29T11:14:03.057Z,100662.47
2023-03-29T11:16:53.546Z,100653.78
2023-03-29T11:19:43.699Z,100641.25
2023-03-29T11:22:33.397Z,100645.44
2023-03-29T11:25:53.266Z,100651.97
2023-03-29T11:28:48.819Z,100631.75
2023-03-29T11:31:25.014Z,100646.00
2023-03-29T11:34:43.388Z,100634.03
2023-03-29T11:37:49.840Z,100637.63
2023-03-29T11:40:39.405Z,100627.09
2023-03-29T11:43:25.200Z,100621.44
2023-03-29T11:46:03.594Z,100625.38
2023-03-29T11:48:39.093Z,100624.31
2023-03-29T11:51:41.407Z,100616.81
2023-03-29T11:54:55.782Z,100627.63
2023-03-29T11:57:36.890Z,100624.16
2023-03-29T12:00:37.657Z,100620.75
2023-03-29T12:03:32.313Z,100609.59
2023-03-29T12:06:21.439Z,100615.75
2023-03-29T12:09:16.838Z,100628.34
2023-03-29T12:12:07.790Z,100615.69
2023-03-29T12:14:58.689Z,100619.31
2023-03-29T12:17:38.143Z,100611.84
2023-03-29T12:20:27.000Z,100604.03
2023-03-29T12:22:55.681Z,100602.75
2023-03-29T12:25:31.015Z,100599.84
2023-03-29T12:28:29.973Z,100605.44
2023-03-29T12:31:11.988Z,100611.72
2023-03-29T12:34:15.984Z,100605.09
2023-03-29T12:37:31.151Z,100610.69
2023-03-29T12:40:15.632Z,100600.97
2023-03-29T12:43:06.860Z,100601.13
2023-03-29T12:45:48.480Z,100595.69
2023-03-29T12:48:20.645Z,100595.63
2023-03-29T12:51:07.752Z,100595.59
2023-03-29T12:53:53.317Z,100607.84
2023-03-29T12:56:23.898Z,100588.81
2023-03-29T12:59:06.898Z,100588.50
2023-03-29T13:01:41.456Z,100582.56
2023-03-29T13:04:20.312Z,100580.91
2023-03-29T13:06:47.225Z,100580.06
2023-03-29T13:09:36.721Z,100585.41
2023-03-29T13:12:11.816Z,100589.47
2023-03-29T13:14:49.084Z,100595.34
2023-03-29T13:17:34.088Z,100579.75
2023-03-29T13:20:22.057Z,100593.72
2023-03-29T13:23:15.631Z,100582.03
2023-03-29T13:26:31.594Z,100567.44
2023-03-29T13:29:16.351Z,100578.59
2023-03-29T13:32:17.719Z,100573.09
2023-03-29T13:35:03.933Z,100567.53
2023-03-29T13:38:06.497Z,100575.28
2023-03-29T13:40:58.738Z,100563.13
2023-03-29T13:43:35.218Z,100563.63
2023-03-29T13:46:03.479Z,100562.13
2023-03-29T13:48:54.585Z,100549.91
2023-03-29T13:51:35.160Z,100553.63
2023-03-29T13:54:10.403Z,100563.53
2023-03-29T13:57:15.460Z,100557.66
2023-03-29T14:00:18.055Z,100548.81
2023-03-29T14:02:56.334Z,100554.41
2023-03-29T14:05:38.142Z,100561.13
2023-03-29T14:08:35.781Z,100549.50
2023-03-29T14:11:06.976Z,100540.53
2023-03-29T14:13:34.968Z,100546.59
2023-03-29T14:16:09.142Z,100548.50
2023-03-29T14:18:44.741Z,100536.00
2023-03-29T14:21:14.441Z,100537.59
2023-03-29T14:23:46.824Z,100534.47
2023-03-29T14:26:16.808Z,100547.19
2023-03-29T14:28:52.535Z,100542.66
2023-03-29T14:31:26.506Z,100529.06
2023-03-29T14:33:59.254Z,100542.34
2023-03-29T14:36:28.790Z,100543.63
2023-03-29T14:39:05.506Z,100527.03
2023-03-29T14:41:36.114Z,100528.13
2023-03-29T14:44:05.950Z,100530.44
2023-03-29T14:46:34.052Z,100533.38
2023-03-29T14:49:02.341Z,100528.56
2023-03-29T14:51:31.183Z,100523.88
2023-03-29T14:54:03.495Z,100517.31
2023-03-29T14:56:32.900Z,100517.22
2023-03-29T14:59:03.634Z,100519.59
2023-03-29T15:01:31.396Z,100500.75
2023-03-29T15:04:10.309Z,100521.50
2023-03-29T15:06:46.977Z,100522.34
2023-03-29T15:09:28.197Z,100520.09
2023-03-29T15:11:58.704Z,100518.78
2023-03-29T15:14:33.727Z,100508.88
2023-03-29T15:17:16.956Z,100514.28
2023-03-29T15:19:44.114Z,100512.22
2023-03-29T15:22:11.774Z,100507.84
2023-03-29T15:24:47.721Z,100514.38
2023-03-29T15:27:18.925Z,100511.31
2023-03-29T15:29:47.881Z,100511.91
2023-03-29T15:32:24.333Z,100503.72
2023-03-29T15:35:06.395Z,100505.16
2023-03-29T15:37:33.755Z,100496.28
2023-03-29T15:40:05.164Z,100493.63
2023-03-29T15:42:32.232Z,100491.13
2023-03-29T15:44:59.350Z,100484.94
2023-03-29T15:47:26.544Z,100498.59
2023-03-29T15:49:53.636Z,100488.75
2023-03-29T15:52:20.641Z,100495.69
2023-03-29T15:54:48.637Z,100488.97
2023-03-29T15:57:17.569Z,100493.81
2023-03-29T15:59:45.453Z,100494.78
2023-03-29T16:02:20.294Z,100487.75
2023-03-29T16:04:47.390Z,100488.09
2023-03-29T16:07:17.115Z,100483.72
2023-03-29T16:09:47.363Z,100478.66
2023-03-29T16:12:16.388Z,100477.16
2023-03-29T16:14:43.547Z,100462.16
2023-03-29T16:17:10.770Z,100464.25
2023-03-29T16:19:37.810Z,100464.56
2023-03-29T16:22:07.218Z,100466.81
2023-03-29T16:24:36.253Z,100466.25
2023-03-29T16:27:04.055Z,100460.44
2023-03-29T16:29:31.746Z,100462.47
2023-03-29T16:31:59.348Z,100465.22
2023-03-29T16:34:26.760Z,100466.06
2023-03-29T16:36:53.981Z,100454.50
2023-03-29T16:39:21.539Z,100461.16
2023-03-29T16:41:50.244Z,100456.84
2023-03-29T16:44:23.744Z,100451.88
2023-03-29T16:46:54.229Z,100454.16
2023-03-29T16:49:21.709Z,100449.50
2023-03-29T16:51:48.837Z,100435.47
2023-03-29T16:54:20.008Z,100444.44
2023-03-29T16:56:47.303Z,100446.03
2023-03-29T16:59:14.486Z,100443.00
2023-03-29T17:01:41.675Z,100451.38
2023-03-29T17:04:09.179Z,100443.38
2023-03-29T17:06:36.431Z,100444.13
2023-03-29T17:09:05.161Z,100447.00
2023-03-29T17:11:32.345Z,100437.63
2023-03-29T17:14:00.193Z,100445.78
2023-03-29T17:16:29.139Z,100447.38
2023-03-29T17:19:00.404Z,100441.16
2023-03-29T17:21:29.380Z,100440.06
2023-03-29T17:23:56.621Z,100435.19
2023-03-29T17:26:23.851Z,100438.97
2023-03-29T17:28:50.970Z,100440.47
2023-03-29T17:31:19.661Z,100446.09
2023-03-29T17:33:47.569Z,100446.44
2023-03-29T17:36:14.782Z,100447.84
2023-03-29T17:38:42.982Z,100449.38
2023-03-29T17:41:11.183Z,100449.25
2023-03-29T17:43:38.286Z,100449.38
2023-03-29T17:46:06.234Z,100449.44
2023-03-29T17:48:33.427Z,100451.09
2023-03-29T17:51:00.638Z,100448.91
2023-03-29T17:53:27.759Z,100452.88
2023-03-29T17:55:54.874Z,100458.69
2023-03-29T17:58:21.982Z,100472.88
2023-03-29T18:00:49.453Z,100468.59
2023-03-29T18:03:16.721Z,100461.31
2023-03-29T18:05:43.727Z,100457.03
2023-03-29T18:08:12.940Z,100460.94
2023-03-29T18:10:40.180Z,100466.38
2023-03-29T18:13:07.241Z,100451.81
2023-03-29T18:15:34.331Z,100453.06
2023-03-29T18:18:01.411Z,100455.22
2023-03-29T18:20:28.486Z,100453.22
2023-03-29T18:22:55.541Z,100454.47
2023-03-29T18:25:24.065Z,100447.59
2023-03-29T18:27:51.416Z,100435.28
2023-03-29T18:30:18.485Z,100439.19
2023-03-29T18:32:45.897Z,100451.41
2023-03-29T18:35:12.984Z,100454.88
2023-03-29T18:37:40.039Z,100450.66
2023-03-29T18:40:08.477Z,100456.66
2023-03-29T18:42:35.851Z,100454.47
2023-03-29T18:45:04.404Z,100444.44
2023-03-29T18:47:31.684Z,100442.19
2023-03-29T18:50:00.401Z,100455.50
2023-03-29T18:52:27.847Z,100444.56
2023-03-29T18:54:54.931Z,100454.25
2023-03-29T18:57:21.967Z,100441.81
2023-03-29T18:59:49.097Z,100457.09
2023-03-29T19:02:16.182Z,100461.25
2023-03-29T19:04:43.368Z,100455.22
2023-03-29T19:07:10.637Z,100445.16
2023-03-29T19:09:37.765Z,100441.06
2023-03-29T19:12:05.338Z,100451.25
2023-03-29T19:14:32.352Z,100439.53
2023-03-29T19:16:59.520Z,100464.06
2023-03-29T19:19:26.557Z,100450.56
2023-03-29T19:21:53.713Z,100448.97
2023-03-29T19:24:22.002Z,100444.13
2023-03-29T19:26:51.574Z,100445.94
2023-03-29T19:29:18.728Z,100454.19
2023-03-29T19:31:45.808Z,100455.34
2023-03-29T19:34:13.010Z,100454.78
2023-03-29T19:36:40.119Z,100446.22
2023-03-29T19:39:07.309Z,100452.06
2023-03-29T19:41:34.370Z,100449.38
2023-03-29T19:44:01.576Z,100450.75
2023-03-29T19:46:29.064Z,100458.00
2023-03-29T19:48:56.493Z,100446.34
2023-03-29T19:51:26.803Z,100442.94
2023-03-29T19:53:55.549Z,100444.31
2023-03-29T19:56:25.608Z,100438.69
2023-03-29T19:58:53.085Z,100436.28
2023-03-29T20:01:21.215Z,100431.94
2023-03-29T20:03:49.524Z,100422.47
2023-03-29T20:06:18.324Z,100414.00
2023-03-29T20:08:45.865Z,100414.16
2023-03-29T20:11:14.964Z,100418.44
2023-03-29T20:13:44.325Z,100413.31
2023-03-29T20:16:18.201Z,100403.09
2023-03-29T20:18:46.592Z,100409.94
2023-03-29T20:21:16.806Z,100401.47
2023-03-29T20:23:44.866Z,100399.00
2023-03-29T20:26:12.046Z,100404.91
2023-03-29T20:28:39.198Z,100401.63
2023-03-29T20:31:10.806Z,100397.25
2023-03-29T20:33:38.726Z,100393.59
2023-03-29T20:36:06.625Z,100382.63
2023-03-29T20:38:34.966Z,100386.84
2023-03-29T20:41:04.305Z,100378.88
2023-03-29T20:43:37.845Z,100387.13
2023-03-29T20:46:14.481Z,100379.34
2023-03-29T20:48:54.318Z,100386.03
2023-03-29T20:51:33.375Z,100384.31
2023-03-29T20:54:04.642Z,100381.47
2023-03-29T20:56:40.168Z,100380.97
2023-03-29T20:59:10.736Z,100382.59
2023-03-29T21:01:40.845Z,100382.00
2023-03-29T21:04:09.234Z,100376.19
2023-03-29T21:06:39.524Z,100368.78
2023-03-29T21:09:07.103Z,100372.97
2023-03-29T21:11:34.173Z,100375.41
2023-03-29T21:14:01.418Z,100366.91
2023-03-29T21:16:29.116Z,100368.22
2023-03-29T21:18:56.738Z,100368.72
2023-03-29T21:21:23.836Z,100369.69
2023-03-29T21:23:50.923Z,100362.84
2023-03-29T21:26:18.463Z,100367.53
2023-03-29T21:28:45.560Z,100360.25
2023-03-29T21:31:12.613Z,100367.81
2023-03-29T21:33:39.733Z,100357.09
2023-03-29T21:36:08.286Z,100360.16
2023-03-29T21:38:35.678Z,100354.00
2023-03-29T21:41:03.278Z,100354.41
2023-03-29T21:43:30.782Z,100354.72
2023-03-29T21:45:57.873Z,100355.53
2023-03-29T21:48:24.967Z,100346.97
2023-03-29T21:50:52.121Z,100351.84
2023-03-29T21:53:19.119Z,100342.63
2023-03-29T21:55:49.535Z,100348.19
2023-03-29T21:58:17.021Z,100336.66
2023-03-29T22:00:45.686Z,100337.19
2023-03-29T22:03:14.180Z,100328.38
2023-03-29T22:05:41.961Z,100329.34
2023-03-29T22:08:10.364Z,100328.09
2023-03-29T22:10:43.844Z,100333.19
2023-03-29T22:13:10.887Z,100329.16
2023-03-29T22:15:38.958Z,100314.69
2023-03-29T22:18:06.284Z,100319.13
2023-03-29T22:20:34.228Z,100301.94
2023-03-29T22:23:01.310Z,100309.38
2023-03-29T22:25:28.422Z,100304.28
2023-03-29T22:27:55.536Z,100309.69
2023-03-29T22:30:22.908Z,100288.25
2023-03-29T22:32:50.002Z,100298.72
2023-03-29T22:35:17.272Z,100301.34
2023-03-29T22:37:44.603Z,100297.72
2023-03-29T22:40:13.259Z,100297.09
2023-03-29T22:42:40.695Z,100296.94
2023-03-29T22:45:08.998Z,100288.56
2023-03-29T22:47:36.181Z,100298.69
2023-03-29T22:50:03.369Z,100286.09
2023-03-29T22:52:30.374Z,100285.50
2023-03-29T22:54:57.377Z,100290.91
2023-03-29T22:57:24.592Z,100285.19
2023-03-29T22:59:51.741Z,100289.97
2023-03-29T23:02:18.822Z,100270.19
2023-03-29T23:04:46.343Z,100277.28
2023-03-29T23:07:13.383Z,100274.91
2023-03-29T23:09:40.451Z,100273.09
2023-03-29T23:12:08.664Z,100275.31
2023-03-29T23:14:35.757Z,100273.56
2023-03-29T23:17:02.778Z,100274.25
2023-03-29T23:19:29.822Z,100279.41
2023-03-29T23:21:56.910Z,100252.81
2023-03-29T23:24:24.154Z,100268.28
2023-03-29T23:26:51.129Z,100274.41
2023-03-29T23:29:18.348Z,100263.91
2023-03-29T23:31:45.411Z,100267.94
2023-03-29T23:34:13.616Z,100270.06
2023-03-29T23:36:40.648Z,100262.72
2023-03-29T23:39:08.065Z,100266.81
2023-03-29T23:41:35.102Z,100269.03
2023-03-29T23:44:04.401Z,100267.38
2023-03-29T23:46:32.521Z,100270.44
2023-03-29T23:48:59.660Z,100267.97
2023-03-29T23:51:28.858Z,100263.06
2023-03-29T23:53:56.925Z,100256.38
2023-03-29T23:56:24.517Z,100256.75
2023-03-29T23:58:51.800Z,100250.38
